sensor_id;sensor_type;location;lat;lon;timestamp;temperature;humidity
19970;DHT22;10146;47.754;9.566;2023-07-20T00:01:04;20.10;99.90
19970;DHT22;10146;47.754;9.566;2023-07-20T00:03:29;20.00;99.90
19970;DHT22;10146;47.754;9.566;2023-07-20T00:05:55;20.00;99.90
19970;DHT22;10146;47.754;9.566;2023-07-20T00:08:21;20.10;99.90
19970;DHT22;10146;47.754;9.566;2023-07-20T00:10:46;20.00;99.90
19970;DHT22;10146;47.754;9.566;2023-07-20T00:13:12;20.00;99.90
19970;DHT22;10146;47.754;9.566;2023-07-20T00:15:38;20.00;99.90
19970;DHT22;10146;47.754;9.566;2023-07-20T00:18:04;19.90;99.90
19970;DHT22;10146;47.754;9.566;2023-07-20T00:20:30;19.90;99.90
19970;DHT22;10146;47.754;9.566;2023-07-20T00:22:57;19.80;99.90
19970;DHT22;10146;47.754;9.566;2023-07-20T00:25:24;19.80;99.90
19970;DHT22;10146;47.754;9.566;2023-07-20T00:27:49;19.80;99.90
19970;DHT22;10146;47.754;9.566;2023-07-20T00:30:15;19.80;99.90
19970;DHT22;10146;47.754;9.566;2023-07-20T00:32:42;19.80;99.90
19970;DHT22;10146;47.754;9.566;2023-07-20T00:35:08;19.80;99.90
19970;DHT22;10146;47.754;9.566;2023-07-20T00:37:34;19.90;99.90
19970;DHT22;10146;47.754;9.566;2023-07-20T00:39:59;19.90;99.90
19970;DHT22;10146;47.754;9.566;2023-07-20T00:42:25;19.90;99.90
19970;DHT22;10146;47.754;9.566;2023-07-20T00:44:50;19.90;99.90
19970;DHT22;10146;47.754;9.566;2023-07-20T00:47:16;19.90;99.90
19970;DHT22;10146;47.754;9.566;2023-07-20T00:49:42;19.90;99.90
19970;DHT22;10146;47.754;9.566;2023-07-20T00:52:10;19.90;99.90
19970;DHT22;10146;47.754;9.566;2023-07-20T00:54:37;19.90;99.90
19970;DHT22;10146;47.754;9.566;2023-07-20T00:57:03;19.90;99.90
19970;DHT22;10146;47.754;9.566;2023-07-20T00:59:29;20.00;99.90
19970;DHT22;10146;47.754;9.566;2023-07-20T01:01:55;19.80;99.90
19970;DHT22;10146;47.754;9.566;2023-07-20T01:04:21;19.80;99.90
19970;DHT22;10146;47.754;9.566;2023-07-20T01:07:00;19.80;99.90
19970;DHT22;10146;47.754;9.566;2023-07-20T01:09:30;19.70;99.90
19970;DHT22;10146;47.754;9.566;2023-07-20T01:12:13;19.70;99.90
19970;DHT22;10146;47.754;9.566;2023-07-20T01:14:40;19.70;99.90
19970;DHT22;10146;47.754;9.566;2023-07-20T01:17:06;19.70;99.90
19970;DHT22;10146;47.754;9.566;2023-07-20T01:19:32;19.80;99.90
19970;DHT22;10146;47.754;9.566;2023-07-20T01:33:41;19.70;99.90
19970;DHT22;10146;47.754;9.566;2023-07-20T01:36:08;19.60;99.90
19970;DHT22;10146;47.754;9.566;2023-07-20T01:38:34;19.70;99.90
19970;DHT22;10146;47.754;9.566;2023-07-20T01:41:01;19.70;99.90
19970;DHT22;10146;47.754;9.566;2023-07-20T01:43:27;19.70;99.90
19970;DHT22;10146;47.754;9.566;2023-07-20T01:45:53;19.60;99.90
19970;DHT22;10146;47.754;9.566;2023-07-20T01:48:18;19.70;99.90
19970;DHT22;10146;47.754;9.566;2023-07-20T01:50:44;19.70;99.90
19970;DHT22;10146;47.754;9.566;2023-07-20T01:53:10;19.90;99.90
19970;DHT22;10146;47.754;9.566;2023-07-20T01:55:35;19.90;99.90
19970;DHT22;10146;47.754;9.566;2023-07-20T01:58:01;19.90;99.90
19970;DHT22;10146;47.754;9.566;2023-07-20T02:00:27;19.90;99.90
19970;DHT22;10146;47.754;9.566;2023-07-20T02:02:53;19.90;99.90
19970;DHT22;10146;47.754;9.566;2023-07-20T02:05:18;20.00;99.90
19970;DHT22;10146;47.754;9.566;2023-07-20T02:07:44;20.00;99.90
19970;DHT22;10146;47.754;9.566;2023-07-20T02:10:10;19.80;99.90
19970;DHT22;10146;47.754;9.566;2023-07-20T02:12:35;20.00;99.90
19970;DHT22;10146;47.754;9.566;2023-07-20T02:15:02;20.00;99.90
19970;DHT22;10146;47.754;9.566;2023-07-20T02:17:28;20.00;99.90
19970;DHT22;10146;47.754;9.566;2023-07-20T02:19:54;20.00;99.90
19970;DHT22;10146;47.754;9.566;2023-07-20T02:22:20;20.00;99.90
19970;DHT22;10146;47.754;9.566;2023-07-20T02:24:46;20.10;99.90
19970;DHT22;10146;47.754;9.566;2023-07-20T02:27:12;20.00;99.90
19970;DHT22;10146;47.754;9.566;2023-07-20T02:29:38;20.10;99.90
19970;DHT22;10146;47.754;9.566;2023-07-20T02:32:03;20.10;99.90
19970;DHT22;10146;47.754;9.566;2023-07-20T02:34:29;20.10;99.90
19970;DHT22;10146;47.754;9.566;2023-07-20T02:36:55;20.20;99.90
19970;DHT22;10146;47.754;9.566;2023-07-20T02:39:27;20.30;99.90
19970;DHT22;10146;47.754;9.566;2023-07-20T02:41:52;20.20;99.90
19970;DHT22;10146;47.754;9.566;2023-07-20T02:44:18;20.20;99.90
19970;DHT22;10146;47.754;9.566;2023-07-20T02:46:43;20.30;99.90
19970;DHT22;10146;47.754;9.566;2023-07-20T02:49:09;20.30;99.90
19970;DHT22;10146;47.754;9.566;2023-07-20T02:51:35;20.30;99.90
19970;DHT22;10146;47.754;9.566;2023-07-20T02:54:00;20.20;99.90
19970;DHT22;10146;47.754;9.566;2023-07-20T02:56:26;20.10;99.90
19970;DHT22;10146;47.754;9.566;2023-07-20T02:58:52;20.10;99.90
19970;DHT22;10146;47.754;9.566;2023-07-20T03:01:18;20.10;99.90
19970;DHT22;10146;47.754;9.566;2023-07-20T03:03:44;20.10;99.90
19970;DHT22;10146;47.754;9.566;2023-07-20T03:06:16;20.10;99.90
19970;DHT22;10146;47.754;9.566;2023-07-20T03:08:45;20.00;99.90
19970;DHT22;10146;47.754;9.566;2023-07-20T03:11:13;20.00;99.90
19970;DHT22;10146;47.754;9.566;2023-07-20T03:13:41;19.90;99.90
19970;DHT22;10146;47.754;9.566;2023-07-20T03:16:07;19.90;99.90
19970;DHT22;10146;47.754;9.566;2023-07-20T03:18:39;20.00;99.90
19970;DHT22;10146;47.754;9.566;2023-07-20T03:21:06;19.90;99.90
19970;DHT22;10146;47.754;9.566;2023-07-20T03:23:31;20.00;99.90
19970;DHT22;10146;47.754;9.566;2023-07-20T03:25:57;20.00;99.90
19970;DHT22;10146;47.754;9.566;2023-07-20T03:28:23;19.90;99.90
19970;DHT22;10146;47.754;9.566;2023-07-20T03:30:55;19.90;99.90
19970;DHT22;10146;47.754;9.566;2023-07-20T03:33:30;19.90;99.90
19970;DHT22;10146;47.754;9.566;2023-07-20T03:35:57;19.90;99.90
19970;DHT22;10146;47.754;9.566;2023-07-20T03:38:23;19.90;99.90
19970;DHT22;10146;47.754;9.566;2023-07-20T03:40:59;20.00;99.90
19970;DHT22;10146;47.754;9.566;2023-07-20T03:43:26;19.90;99.90
19970;DHT22;10146;47.754;9.566;2023-07-20T03:45:52;20.00;99.90
19970;DHT22;10146;47.754;9.566;2023-07-20T03:48:19;19.90;99.90
19970;DHT22;10146;47.754;9.566;2023-07-20T03:50:46;20.00;99.90
19970;DHT22;10146;47.754;9.566;2023-07-20T03:53:12;19.90;99.90
19970;DHT22;10146;47.754;9.566;2023-07-20T03:55:38;19.90;99.90
19970;DHT22;10146;47.754;9.566;2023-07-20T03:58:06;19.90;99.90
19970;DHT22;10146;47.754;9.566;2023-07-20T04:00:32;20.00;99.90
19970;DHT22;10146;47.754;9.566;2023-07-20T04:02:57;20.00;99.90
19970;DHT22;10146;47.754;9.566;2023-07-20T04:05:23;20.00;99.90
19970;DHT22;10146;47.754;9.566;2023-07-20T04:07:48;19.90;99.90
19970;DHT22;10146;47.754;9.566;2023-07-20T04:10:14;19.80;99.90
19970;DHT22;10146;47.754;9.566;2023-07-20T04:12:39;19.70;99.90
19970;DHT22;10146;47.754;9.566;2023-07-20T04:15:05;19.80;99.90
19970;DHT22;10146;47.754;9.566;2023-07-20T04:17:31;19.90;99.90
19970;DHT22;10146;47.754;9.566;2023-07-20T04:19:57;19.90;99.90
19970;DHT22;10146;47.754;9.566;2023-07-20T04:22:22;19.90;99.90
19970;DHT22;10146;47.754;9.566;2023-07-20T04:24:48;19.90;99.90
19970;DHT22;10146;47.754;9.566;2023-07-20T04:27:14;19.80;99.90
19970;DHT22;10146;47.754;9.566;2023-07-20T04:29:39;19.70;99.90
19970;DHT22;10146;47.754;9.566;2023-07-20T04:32:05;19.70;99.90
19970;DHT22;10146;47.754;9.566;2023-07-20T04:34:31;19.60;99.90
19970;DHT22;10146;47.754;9.566;2023-07-20T04:36:56;19.60;99.90
19970;DHT22;10146;47.754;9.566;2023-07-20T04:39:22;19.60;99.90
19970;DHT22;10146;47.754;9.566;2023-07-20T04:41:48;19.50;99.90
19970;DHT22;10146;47.754;9.566;2023-07-20T04:44:13;19.50;99.90
19970;DHT22;10146;47.754;9.566;2023-07-20T04:46:39;19.60;99.90
19970;DHT22;10146;47.754;9.566;2023-07-20T04:49:06;19.70;99.90
19970;DHT22;10146;47.754;9.566;2023-07-20T04:51:31;19.70;99.90
19970;DHT22;10146;47.754;9.566;2023-07-20T04:53:57;19.60;99.90
19970;DHT22;10146;47.754;9.566;2023-07-20T04:56:24;19.50;99.90
19970;DHT22;10146;47.754;9.566;2023-07-20T04:58:50;19.40;99.90
19970;DHT22;10146;47.754;9.566;2023-07-20T05:01:15;19.40;99.90
19970;DHT22;10146;47.754;9.566;2023-07-20T05:03:41;19.40;99.90
19970;DHT22;10146;47.754;9.566;2023-07-20T05:06:07;19.40;99.90
19970;DHT22;10146;47.754;9.566;2023-07-20T05:08:32;19.40;99.90
19970;DHT22;10146;47.754;9.566;2023-07-20T05:10:59;19.40;99.90
19970;DHT22;10146;47.754;9.566;2023-07-20T05:13:25;19.50;99.90
19970;DHT22;10146;47.754;9.566;2023-07-20T05:15:51;19.50;99.90
19970;DHT22;10146;47.754;9.566;2023-07-20T05:18:18;19.50;99.90
19970;DHT22;10146;47.754;9.566;2023-07-20T05:20:48;19.50;99.90
19970;DHT22;10146;47.754;9.566;2023-07-20T05:23:15;19.50;99.90
19970;DHT22;10146;47.754;9.566;2023-07-20T05:25:41;19.50;99.90
19970;DHT22;10146;47.754;9.566;2023-07-20T05:28:07;19.50;99.90
19970;DHT22;10146;47.754;9.566;2023-07-20T05:30:32;19.50;99.90
19970;DHT22;10146;47.754;9.566;2023-07-20T05:32:58;19.50;99.90
19970;DHT22;10146;47.754;9.566;2023-07-20T05:35:25;19.60;99.90
19970;DHT22;10146;47.754;9.566;2023-07-20T05:37:50;19.60;99.90
19970;DHT22;10146;47.754;9.566;2023-07-20T05:40:16;19.60;99.90
19970;DHT22;10146;47.754;9.566;2023-07-20T05:42:46;19.60;99.90
19970;DHT22;10146;47.754;9.566;2023-07-20T05:45:13;19.60;99.90
19970;DHT22;10146;47.754;9.566;2023-07-20T05:47:39;19.70;99.90
19970;DHT22;10146;47.754;9.566;2023-07-20T05:50:05;19.90;99.90
19970;DHT22;10146;47.754;9.566;2023-07-20T05:52:31;19.90;99.90
19970;DHT22;10146;47.754;9.566;2023-07-20T05:54:57;19.90;99.90
19970;DHT22;10146;47.754;9.566;2023-07-20T05:57:23;19.90;99.90
19970;DHT22;10146;47.754;9.566;2023-07-20T05:59:48;20.00;99.90
19970;DHT22;10146;47.754;9.566;2023-07-20T06:02:14;20.10;99.90
19970;DHT22;10146;47.754;9.566;2023-07-20T06:04:39;20.10;99.90
19970;DHT22;10146;47.754;9.566;2023-07-20T06:07:05;20.30;99.90
19970;DHT22;10146;47.754;9.566;2023-07-20T06:09:33;20.50;99.90
19970;DHT22;10146;47.754;9.566;2023-07-20T06:11:58;20.70;99.90
19970;DHT22;10146;47.754;9.566;2023-07-20T06:14:24;20.90;99.90
19970;DHT22;10146;47.754;9.566;2023-07-20T06:16:50;21.10;99.90
19970;DHT22;10146;47.754;9.566;2023-07-20T06:19:15;21.30;99.90
19970;DHT22;10146;47.754;9.566;2023-07-20T06:21:41;21.30;99.90
19970;DHT22;10146;47.754;9.566;2023-07-20T06:24:07;21.40;99.90
19970;DHT22;10146;47.754;9.566;2023-07-20T06:26:33;21.40;99.90
19970;DHT22;10146;47.754;9.566;2023-07-20T06:29:07;21.20;99.90
19970;DHT22;10146;47.754;9.566;2023-07-20T06:31:34;21.30;99.90
19970;DHT22;10146;47.754;9.566;2023-07-20T06:33:59;21.20;99.90
19970;DHT22;10146;47.754;9.566;2023-07-20T06:36:26;21.20;99.90
19970;DHT22;10146;47.754;9.566;2023-07-20T06:38:52;21.20;99.90
19970;DHT22;10146;47.754;9.566;2023-07-20T06:41:18;21.30;99.90
19970;DHT22;10146;47.754;9.566;2023-07-20T06:43:44;21.30;99.90
19970;DHT22;10146;47.754;9.566;2023-07-20T06:46:10;21.30;99.90
19970;DHT22;10146;47.754;9.566;2023-07-20T06:48:36;21.40;99.90
19970;DHT22;10146;47.754;9.566;2023-07-20T06:51:01;21.40;99.90
19970;DHT22;10146;47.754;9.566;2023-07-20T06:53:28;21.40;99.90
19970;DHT22;10146;47.754;9.566;2023-07-20T06:55:54;21.40;99.90
19970;DHT22;10146;47.754;9.566;2023-07-20T06:58:19;21.70;99.90
19970;DHT22;10146;47.754;9.566;2023-07-20T07:00:47;21.80;99.90
19970;DHT22;10146;47.754;9.566;2023-07-20T07:03:12;21.90;99.90
19970;DHT22;10146;47.754;9.566;2023-07-20T07:05:38;22.10;99.90
19970;DHT22;10146;47.754;9.566;2023-07-20T07:08:06;22.30;99.90
19970;DHT22;10146;47.754;9.566;2023-07-20T07:10:34;22.50;99.90
19970;DHT22;10146;47.754;9.566;2023-07-20T07:13:00;22.70;99.70
19970;DHT22;10146;47.754;9.566;2023-07-20T07:15:26;22.70;99.70
19970;DHT22;10146;47.754;9.566;2023-07-20T07:17:53;22.70;98.80
19970;DHT22;10146;47.754;9.566;2023-07-20T07:20:18;22.70;99.70
19970;DHT22;10146;47.754;9.566;2023-07-20T07:22:44;22.70;97.50
19970;DHT22;10146;47.754;9.566;2023-07-20T07:25:10;22.50;97.70
19970;DHT22;10146;47.754;9.566;2023-07-20T07:27:36;22.40;96.80
19970;DHT22;10146;47.754;9.566;2023-07-20T07:30:05;22.20;98.40
19970;DHT22;10146;47.754;9.566;2023-07-20T07:32:31;22.20;99.50
19970;DHT22;10146;47.754;9.566;2023-07-20T07:34:56;22.20;98.50
19970;DHT22;10146;47.754;9.566;2023-07-20T07:37:24;22.10;98.50
19970;DHT22;10146;47.754;9.566;2023-07-20T07:39:49;22.00;98.70
19970;DHT22;10146;47.754;9.566;2023-07-20T07:42:15;22.20;99.80
19970;DHT22;10146;47.754;9.566;2023-07-20T07:44:41;22.60;99.90
19970;DHT22;10146;47.754;9.566;2023-07-20T07:47:06;22.80;98.60
19970;DHT22;10146;47.754;9.566;2023-07-20T07:49:32;22.90;97.50
19970;DHT22;10146;47.754;9.566;2023-07-20T07:51:58;22.90;97.30
19970;DHT22;10146;47.754;9.566;2023-07-20T07:54:23;23.10;96.80
19970;DHT22;10146;47.754;9.566;2023-07-20T07:56:49;23.00;95.30
19970;DHT22;10146;47.754;9.566;2023-07-20T07:59:16;23.00;96.00
19970;DHT22;10146;47.754;9.566;2023-07-20T08:01:42;23.00;95.80
19970;DHT22;10146;47.754;9.566;2023-07-20T08:04:07;22.90;96.80
19970;DHT22;10146;47.754;9.566;2023-07-20T08:06:33;23.10;96.20
19970;DHT22;10146;47.754;9.566;2023-07-20T08:08:59;23.20;96.00
19970;DHT22;10146;47.754;9.566;2023-07-20T08:11:25;23.50;94.80
19970;DHT22;10146;47.754;9.566;2023-07-20T08:13:50;23.60;94.30
19970;DHT22;10146;47.754;9.566;2023-07-20T08:16:16;23.70;93.80
19970;DHT22;10146;47.754;9.566;2023-07-20T08:18:43;23.80;93.30
19970;DHT22;10146;47.754;9.566;2023-07-20T08:21:08;23.70;92.50
19970;DHT22;10146;47.754;9.566;2023-07-20T08:23:34;23.50;93.80
19970;DHT22;10146;47.754;9.566;2023-07-20T08:25:59;23.50;94.00
19970;DHT22;10146;47.754;9.566;2023-07-20T08:28:26;23.60;93.50
19970;DHT22;10146;47.754;9.566;2023-07-20T08:30:52;23.70;93.50
19970;DHT22;10146;47.754;9.566;2023-07-20T08:33:19;23.70;93.60
19970;DHT22;10146;47.754;9.566;2023-07-20T08:35:45;23.70;92.90
19970;DHT22;10146;47.754;9.566;2023-07-20T08:38:11;23.50;92.30
19970;DHT22;10146;47.754;9.566;2023-07-20T08:40:41;23.50;93.30
19970;DHT22;10146;47.754;9.566;2023-07-20T08:43:07;23.50;92.90
19970;DHT22;10146;47.754;9.566;2023-07-20T08:45:34;23.50;93.00
19970;DHT22;10146;47.754;9.566;2023-07-20T08:48:03;23.60;92.30
19970;DHT22;10146;47.754;9.566;2023-07-20T08:50:30;23.60;92.70
19970;DHT22;10146;47.754;9.566;2023-07-20T08:52:57;23.90;92.60
19970;DHT22;10146;47.754;9.566;2023-07-20T08:55:27;24.00;91.40
19970;DHT22;10146;47.754;9.566;2023-07-20T08:57:54;24.00;91.30
19970;DHT22;10146;47.754;9.566;2023-07-20T09:00:21;24.10;92.00
19970;DHT22;10146;47.754;9.566;2023-07-20T09:02:49;24.30;91.50
19970;DHT22;10146;47.754;9.566;2023-07-20T09:05:16;24.40;91.70
19970;DHT22;10146;47.754;9.566;2023-07-20T09:07:42;24.60;91.40
19970;DHT22;10146;47.754;9.566;2023-07-20T09:10:07;24.80;91.70
19970;DHT22;10146;47.754;9.566;2023-07-20T09:12:41;24.80;90.90
19970;DHT22;10146;47.754;9.566;2023-07-20T09:15:09;24.90;90.70
19970;DHT22;10146;47.754;9.566;2023-07-20T09:17:35;25.00;90.20
19970;DHT22;10146;47.754;9.566;2023-07-20T09:20:05;24.80;88.30
19970;DHT22;10146;47.754;9.566;2023-07-20T09:22:33;24.90;90.20
19970;DHT22;10146;47.754;9.566;2023-07-20T09:25:00;25.10;90.20
19970;DHT22;10146;47.754;9.566;2023-07-20T09:27:38;25.40;88.70
19970;DHT22;10146;47.754;9.566;2023-07-20T09:30:05;25.70;86.50
19970;DHT22;10146;47.754;9.566;2023-07-20T09:32:38;25.90;87.40
19970;DHT22;10146;47.754;9.566;2023-07-20T09:35:05;25.70;88.10
19970;DHT22;10146;47.754;9.566;2023-07-20T09:37:33;25.60;87.20
19970;DHT22;10146;47.754;9.566;2023-07-20T09:39:59;25.60;86.00
19970;DHT22;10146;47.754;9.566;2023-07-20T09:42:25;25.70;87.70
19970;DHT22;10146;47.754;9.566;2023-07-20T09:44:52;25.80;86.90
19970;DHT22;10146;47.754;9.566;2023-07-20T09:47:24;25.90;86.40
19970;DHT22;10146;47.754;9.566;2023-07-20T09:49:57;26.10;85.10
19970;DHT22;10146;47.754;9.566;2023-07-20T09:52:24;25.90;84.40
19970;DHT22;10146;47.754;9.566;2023-07-20T09:54:50;25.60;85.10
19970;DHT22;10146;47.754;9.566;2023-07-20T09:57:15;25.30;85.30
19970;DHT22;10146;47.754;9.566;2023-07-20T09:59:42;25.20;86.40
19970;DHT22;10146;47.754;9.566;2023-07-20T10:02:16;25.40;84.70
19970;DHT22;10146;47.754;9.566;2023-07-20T10:04:44;25.20;86.60
19970;DHT22;10146;47.754;9.566;2023-07-20T10:07:10;25.60;88.30
19970;DHT22;10146;47.754;9.566;2023-07-20T10:09:40;25.90;87.60
19970;DHT22;10146;47.754;9.566;2023-07-20T10:12:07;26.30;85.70
19970;DHT22;10146;47.754;9.566;2023-07-20T10:14:40;26.50;82.30
19970;DHT22;10146;47.754;9.566;2023-07-20T10:17:07;26.20;83.00
19970;DHT22;10146;47.754;9.566;2023-07-20T10:19:43;26.30;83.80
19970;DHT22;10146;47.754;9.566;2023-07-20T10:22:19;26.60;81.40
19970;DHT22;10146;47.754;9.566;2023-07-20T10:24:48;26.60;78.10
19970;DHT22;10146;47.754;9.566;2023-07-20T10:27:15;26.30;80.90
19970;DHT22;10146;47.754;9.566;2023-07-20T10:29:41;26.10;80.70
19970;DHT22;10146;47.754;9.566;2023-07-20T10:32:08;26.20;82.70
19970;DHT22;10146;47.754;9.566;2023-07-20T10:34:34;26.20;80.60
19970;DHT22;10146;47.754;9.566;2023-07-20T10:37:00;26.20;81.20
19970;DHT22;10146;47.754;9.566;2023-07-20T10:39:27;26.10;81.60
19970;DHT22;10146;47.754;9.566;2023-07-20T10:42:06;26.40;80.70
19970;DHT22;10146;47.754;9.566;2023-07-20T10:44:32;26.70;80.50
19970;DHT22;10146;47.754;9.566;2023-07-20T10:47:02;26.60;79.90
19970;DHT22;10146;47.754;9.566;2023-07-20T10:49:28;26.30;80.10
19970;DHT22;10146;47.754;9.566;2023-07-20T10:51:59;25.90;81.20
19970;DHT22;10146;47.754;9.566;2023-07-20T10:56:51;25.40;84.20
19970;DHT22;10146;47.754;9.566;2023-07-20T11:01:49;24.70;84.50
19970;DHT22;10146;47.754;9.566;2023-07-20T11:04:16;24.90;84.80
19970;DHT22;10146;47.754;9.566;2023-07-20T11:06:45;24.80;84.10
19970;DHT22;10146;47.754;9.566;2023-07-20T11:09:14;25.20;87.90
19970;DHT22;10146;47.754;9.566;2023-07-20T11:11:46;25.60;88.30
19970;DHT22;10146;47.754;9.566;2023-07-20T11:14:23;26.00;84.80
19970;DHT22;10146;47.754;9.566;2023-07-20T11:16:50;25.80;82.50
19970;DHT22;10146;47.754;9.566;2023-07-20T11:19:21;26.00;82.90
19970;DHT22;10146;47.754;9.566;2023-07-20T11:21:56;26.10;82.00
19970;DHT22;10146;47.754;9.566;2023-07-20T11:24:23;26.10;81.70
19970;DHT22;10146;47.754;9.566;2023-07-20T11:26:50;26.10;81.00
19970;DHT22;10146;47.754;9.566;2023-07-20T11:29:17;26.00;81.30
19970;DHT22;10146;47.754;9.566;2023-07-20T11:31:45;26.10;85.10
19970;DHT22;10146;47.754;9.566;2023-07-20T11:34:15;26.40;84.80
19970;DHT22;10146;47.754;9.566;2023-07-20T11:36:45;26.40;82.40
19970;DHT22;10146;47.754;9.566;2023-07-20T11:39:13;26.40;84.30
19970;DHT22;10146;47.754;9.566;2023-07-20T11:41:44;26.60;82.70
19970;DHT22;10146;47.754;9.566;2023-07-20T11:44:10;26.80;79.00
19970;DHT22;10146;47.754;9.566;2023-07-20T11:46:41;26.90;80.50
19970;DHT22;10146;47.754;9.566;2023-07-20T11:49:08;27.10;81.50
19970;DHT22;10146;47.754;9.566;2023-07-20T11:51:34;26.50;79.30
19970;DHT22;10146;47.754;9.566;2023-07-20T11:54:01;26.20;79.50
19970;DHT22;10146;47.754;9.566;2023-07-20T11:56:28;26.00;80.90
19970;DHT22;10146;47.754;9.566;2023-07-20T11:59:00;25.80;80.10
19970;DHT22;10146;47.754;9.566;2023-07-20T12:01:28;25.70;82.50
19970;DHT22;10146;47.754;9.566;2023-07-20T12:03:59;26.00;84.60
19970;DHT22;10146;47.754;9.566;2023-07-20T12:06:25;26.20;80.00
19970;DHT22;10146;47.754;9.566;2023-07-20T12:08:54;26.60;81.10
19970;DHT22;10146;47.754;9.566;2023-07-20T12:14:00;26.40;80.90
19970;DHT22;10146;47.754;9.566;2023-07-20T12:16:29;26.40;82.70
19970;DHT22;10146;47.754;9.566;2023-07-20T12:19:02;26.70;76.30
19970;DHT22;10146;47.754;9.566;2023-07-20T12:21:30;27.10;75.20
19970;DHT22;10146;47.754;9.566;2023-07-20T12:23:57;27.40;74.20
19970;DHT22;10146;47.754;9.566;2023-07-20T12:26:24;27.50;74.30
19970;DHT22;10146;47.754;9.566;2023-07-20T12:28:51;27.80;75.30
19970;DHT22;10146;47.754;9.566;2023-07-20T12:31:17;28.20;74.60
19970;DHT22;10146;47.754;9.566;2023-07-20T12:33:42;28.40;75.40
19970;DHT22;10146;47.754;9.566;2023-07-20T12:36:09;28.60;76.20
19970;DHT22;10146;47.754;9.566;2023-07-20T12:38:35;28.80;74.50
19970;DHT22;10146;47.754;9.566;2023-07-20T12:41:02;29.00;70.30
19970;DHT22;10146;47.754;9.566;2023-07-20T12:43:27;29.20;74.40
19970;DHT22;10146;47.754;9.566;2023-07-20T12:45:53;28.70;66.20
19970;DHT22;10146;47.754;9.566;2023-07-20T12:48:20;28.60;68.70
19970;DHT22;10146;47.754;9.566;2023-07-20T12:50:46;29.00;68.20
19970;DHT22;10146;47.754;9.566;2023-07-20T12:53:11;29.00;66.70
19970;DHT22;10146;47.754;9.566;2023-07-20T12:55:38;29.00;63.80
19970;DHT22;10146;47.754;9.566;2023-07-20T12:58:04;28.80;66.30
19970;DHT22;10146;47.754;9.566;2023-07-20T13:00:30;28.90;62.20
19970;DHT22;10146;47.754;9.566;2023-07-20T13:02:57;28.90;65.20
19970;DHT22;10146;47.754;9.566;2023-07-20T13:05:23;28.80;60.70
19970;DHT22;10146;47.754;9.566;2023-07-20T13:07:49;28.40;61.30
19970;DHT22;10146;47.754;9.566;2023-07-20T13:10:14;28.30;60.20
19970;DHT22;10146;47.754;9.566;2023-07-20T13:12:40;28.40;62.00
19970;DHT22;10146;47.754;9.566;2023-07-20T13:15:08;28.90;61.60
19970;DHT22;10146;47.754;9.566;2023-07-20T13:17:34;29.10;59.80
19970;DHT22;10146;47.754;9.566;2023-07-20T13:20:01;29.20;59.90
19970;DHT22;10146;47.754;9.566;2023-07-20T13:22:26;29.30;59.80
19970;DHT22;10146;47.754;9.566;2023-07-20T13:24:53;29.50;62.10
19970;DHT22;10146;47.754;9.566;2023-07-20T13:27:18;29.80;60.30
19970;DHT22;10146;47.754;9.566;2023-07-20T13:29:44;29.90;58.10
19970;DHT22;10146;47.754;9.566;2023-07-20T13:32:13;29.90;58.50
19970;DHT22;10146;47.754;9.566;2023-07-20T13:34:46;29.70;58.00
19970;DHT22;10146;47.754;9.566;2023-07-20T13:37:12;29.70;61.00
19970;DHT22;10146;47.754;9.566;2023-07-20T13:39:38;29.80;59.80
19970;DHT22;10146;47.754;9.566;2023-07-20T13:42:04;29.90;58.60
19970;DHT22;10146;47.754;9.566;2023-07-20T13:44:33;30.10;58.80
19970;DHT22;10146;47.754;9.566;2023-07-20T13:47:00;30.10;59.60
19970;DHT22;10146;47.754;9.566;2023-07-20T13:49:25;30.50;58.60
19970;DHT22;10146;47.754;9.566;2023-07-20T13:51:51;30.20;58.30
19970;DHT22;10146;47.754;9.566;2023-07-20T13:54:16;30.40;60.00
19970;DHT22;10146;47.754;9.566;2023-07-20T13:56:42;30.50;57.80
19970;DHT22;10146;47.754;9.566;2023-07-20T13:59:08;30.30;56.60
19970;DHT22;10146;47.754;9.566;2023-07-20T14:01:33;30.10;54.80
19970;DHT22;10146;47.754;9.566;2023-07-20T14:04:01;30.30;56.20
19970;DHT22;10146;47.754;9.566;2023-07-20T14:06:30;30.00;54.20
19970;DHT22;10146;47.754;9.566;2023-07-20T14:08:57;30.10;55.20
19970;DHT22;10146;47.754;9.566;2023-07-20T14:11:23;30.80;55.30
19970;DHT22;10146;47.754;9.566;2023-07-20T14:13:52;31.00;54.90
19970;DHT22;10146;47.754;9.566;2023-07-20T14:16:23;30.70;55.30
19970;DHT22;10146;47.754;9.566;2023-07-20T14:18:50;30.40;56.40
19970;DHT22;10146;47.754;9.566;2023-07-20T14:21:20;30.40;55.30
19970;DHT22;10146;47.754;9.566;2023-07-20T14:23:46;30.20;56.30
19970;DHT22;10146;47.754;9.566;2023-07-20T14:26:13;29.90;56.80
19970;DHT22;10146;47.754;9.566;2023-07-20T14:28:38;29.90;56.30
19970;DHT22;10146;47.754;9.566;2023-07-20T14:31:04;29.70;56.80
19970;DHT22;10146;47.754;9.566;2023-07-20T14:33:30;29.80;57.30
19970;DHT22;10146;47.754;9.566;2023-07-20T14:35:56;29.80;55.90
19970;DHT22;10146;47.754;9.566;2023-07-20T14:38:22;29.90;55.20
19970;DHT22;10146;47.754;9.566;2023-07-20T14:40:47;29.80;54.70
19970;DHT22;10146;47.754;9.566;2023-07-20T14:43:13;29.60;54.90
19970;DHT22;10146;47.754;9.566;2023-07-20T14:45:40;29.90;55.50
19970;DHT22;10146;47.754;9.566;2023-07-20T14:48:06;30.30;54.90
19970;DHT22;10146;47.754;9.566;2023-07-20T14:50:33;30.80;54.20
19970;DHT22;10146;47.754;9.566;2023-07-20T14:52:58;31.20;54.00
19970;DHT22;10146;47.754;9.566;2023-07-20T14:55:24;31.50;52.60
19970;DHT22;10146;47.754;9.566;2023-07-20T14:57:50;31.20;53.60
19970;DHT22;10146;47.754;9.566;2023-07-20T15:00:17;31.20;53.60
19970;DHT22;10146;47.754;9.566;2023-07-20T15:02:42;31.20;54.20
19970;DHT22;10146;47.754;9.566;2023-07-20T15:05:10;31.30;53.80
19970;DHT22;10146;47.754;9.566;2023-07-20T15:07:36;31.80;54.40
19970;DHT22;10146;47.754;9.566;2023-07-20T15:10:06;32.00;52.20
19970;DHT22;10146;47.754;9.566;2023-07-20T15:12:31;31.70;52.20
19970;DHT22;10146;47.754;9.566;2023-07-20T15:15:07;31.50;51.90
19970;DHT22;10146;47.754;9.566;2023-07-20T15:17:34;31.40;52.90
19970;DHT22;10146;47.754;9.566;2023-07-20T15:20:01;31.40;53.10
19970;DHT22;10146;47.754;9.566;2023-07-20T15:22:30;31.90;52.60
19970;DHT22;10146;47.754;9.566;2023-07-20T15:24:56;32.20;53.40
19970;DHT22;10146;47.754;9.566;2023-07-20T15:27:21;32.40;52.10
19970;DHT22;10146;47.754;9.566;2023-07-20T15:29:48;32.10;52.00
19970;DHT22;10146;47.754;9.566;2023-07-20T15:32:14;31.40;52.50
19970;DHT22;10146;47.754;9.566;2023-07-20T15:34:42;31.60;54.80
19970;DHT22;10146;47.754;9.566;2023-07-20T15:37:07;32.00;52.40
19970;DHT22;10146;47.754;9.566;2023-07-20T15:39:33;32.10;52.90
19970;DHT22;10146;47.754;9.566;2023-07-20T15:41:59;32.40;51.30
19970;DHT22;10146;47.754;9.566;2023-07-20T15:44:24;32.10;51.40
19970;DHT22;10146;47.754;9.566;2023-07-20T15:46:50;31.80;50.70